SWR5YG LIPZ-LSZH
Flight info
| Callsign | SWR5YG |
|---|---|
| Flight time | 0h 45m |
| Altitude | 30000 |
| Route | ROKIB8M ROKIB DCT EKPIS DCT SOTOV P66 KPT L856 NEGRA NEGRA2A |
| Aircraft | A320/M-SDE3FGHIRWY/LB1 |
Departure
| Time | 2026-05-07 17:50 |
|---|---|
| Airport | Venice Marco Polo Airport (LIPZ) |
Arrival
| Time | 2026-05-07 18:35 |
|---|---|
| Airport | Zürich Airport (LSZH) |
| Time | Latitude | Longitude | Altitude | Speed | Heading |
|---|---|---|---|---|---|
| 2026-05-07 17:04 | 45.50121 | 12.33983 | 16 ft | 0 kts | 312° |
| 2026-05-07 17:28 | 45.50121 | 12.33984 | 16 ft | 0 kts | 312° |
| 2026-05-07 17:41 | 45.50121 | 12.33983 | 15 ft | 0 kts | 312° |
| 2026-05-07 17:41 | 45.50116 | 12.33992 | 16 ft | 2 kts | 312° |
| 2026-05-07 17:41 | 45.50104 | 12.34010 | 17 ft | 2 kts | 312° |
| 2026-05-07 17:42 | 45.50093 | 12.34028 | 15 ft | 2 kts | 312° |
| 2026-05-07 17:42 | 45.50083 | 12.34047 | 17 ft | 2 kts | 290° |
| 2026-05-07 17:42 | 45.50078 | 12.34070 | 16 ft | 2 kts | 243° |
| 2026-05-07 17:42 | 45.50080 | 12.34076 | 15 ft | 0 kts | 226° |
| 2026-05-07 17:44 | 45.50078 | 12.34074 | 16 ft | 2 kts | 225° |
| 2026-05-07 17:45 | 45.50059 | 12.34060 | 16 ft | 7 kts | 199° |
| 2026-05-07 17:45 | 45.49996 | 12.34061 | 16 ft | 10 kts | 176° |
| 2026-05-07 17:45 | 45.49922 | 12.34063 | 14 ft | 11 kts | 188° |
| 2026-05-07 17:45 | 45.49866 | 12.34006 | 14 ft | 9 kts | 224° |
| 2026-05-07 17:46 | 45.49824 | 12.33948 | 14 ft | 8 kts | 223° |
| 2026-05-07 17:46 | 45.49787 | 12.33899 | 14 ft | 6 kts | 223° |
| 2026-05-07 17:46 | 45.49758 | 12.33863 | 15 ft | 7 kts | 220° |
| 2026-05-07 17:46 | 45.49707 | 12.33801 | 16 ft | 9 kts | 221° |
| 2026-05-07 17:47 | 45.49663 | 12.33745 | 16 ft | 8 kts | 222° |
| 2026-05-07 17:47 | 45.49625 | 12.33697 | 18 ft | 7 kts | 222° |
| 2026-05-07 17:47 | 45.49593 | 12.33655 | 16 ft | 6 kts | 222° |
| 2026-05-07 17:47 | 45.49569 | 12.33625 | 16 ft | 4 kts | 222° |
| 2026-05-07 17:48 | 45.49545 | 12.33597 | 17 ft | 7 kts | 213° |
| 2026-05-07 17:48 | 45.49488 | 12.33635 | 16 ft | 11 kts | 130° |
| 2026-05-07 17:48 | 45.49433 | 12.33726 | 15 ft | 12 kts | 130° |
| 2026-05-07 17:48 | 45.49429 | 12.33795 | 16 ft | 0 kts | 42° |
| 2026-05-07 17:49 | 45.49435 | 12.33803 | 16 ft | 13 kts | 42° |
| 2026-05-07 17:49 | 45.49709 | 12.34155 | 13 ft | 88 kts | 41° |
| 2026-05-07 17:49 | 45.50317 | 12.34938 | 16 ft | 145 kts | 41° |
| 2026-05-07 17:49 | 45.51161 | 12.36017 | 259 ft | 168 kts | 44° |
| 2026-05-07 17:50 | 45.51991 | 12.37169 | 938 ft | 167 kts | 47° |
| 2026-05-07 17:50 | 45.52827 | 12.38327 | 1430 ft | 179 kts | 49° |
| 2026-05-07 17:50 | 45.53522 | 12.39882 | 1699 ft | 195 kts | 77° |
| 2026-05-07 17:50 | 45.53566 | 12.41866 | 2164 ft | 201 kts | 104° |
| 2026-05-07 17:51 | 45.53304 | 12.43846 | 2772 ft | 207 kts | 102° |
| 2026-05-07 17:51 | 45.53078 | 12.45903 | 3376 ft | 212 kts | 100° |
| 2026-05-07 17:51 | 45.52864 | 12.48008 | 3927 ft | 217 kts | 99° |
| 2026-05-07 17:51 | 45.52596 | 12.50152 | 4492 ft | 222 kts | 111° |
| 2026-05-07 17:52 | 45.51748 | 12.51962 | 5067 ft | 222 kts | 142° |
| 2026-05-07 17:52 | 45.50376 | 12.52885 | 5660 ft | 219 kts | 174° |
| 2026-05-07 17:52 | 45.48886 | 12.52705 | 6280 ft | 215 kts | 202° |
| 2026-05-07 17:52 | 45.47513 | 12.51863 | 6864 ft | 215 kts | 216° |
| 2026-05-07 17:53 | 45.46539 | 12.50280 | 7406 ft | 214 kts | 247° |
| 2026-05-07 17:53 | 45.46276 | 12.48162 | 7728 ft | 230 kts | 278° |
| 2026-05-07 17:53 | 45.46730 | 12.45853 | 8014 ft | 254 kts | 287° |
| 2026-05-07 17:53 | 45.47289 | 12.43382 | 8519 ft | 269 kts | 287° |
| 2026-05-07 17:54 | 45.47864 | 12.40817 | 9272 ft | 274 kts | 287° |
| 2026-05-07 17:54 | 45.48447 | 12.38198 | 10065 ft | 278 kts | 287° |
| 2026-05-07 17:54 | 45.49044 | 12.35488 | 10424 ft | 298 kts | 287° |
| 2026-05-07 17:54 | 45.49681 | 12.32564 | 10740 ft | 317 kts | 287° |
| 2026-05-07 17:55 | 45.50337 | 12.29531 | 11377 ft | 323 kts | 286° |
| 2026-05-07 17:55 | 45.51001 | 12.26450 | 12105 ft | 327 kts | 286° |
| 2026-05-07 17:55 | 45.51672 | 12.23341 | 12843 ft | 330 kts | 286° |
| 2026-05-07 17:55 | 45.52455 | 12.20247 | 13501 ft | 337 kts | 295° |
| 2026-05-07 17:56 | 45.53912 | 12.17511 | 13634 ft | 361 kts | 317° |
| 2026-05-07 17:56 | 45.56124 | 12.15641 | 13857 ft | 380 kts | 334° |
| 2026-05-07 17:56 | 45.58565 | 12.14110 | 14351 ft | 385 kts | 334° |
| 2026-05-07 17:56 | 45.61033 | 12.12563 | 14926 ft | 389 kts | 334° |
| 2026-05-07 17:57 | 45.63511 | 12.10996 | 15512 ft | 391 kts | 334° |
| 2026-05-07 17:57 | 45.65163 | 12.09944 | 15897 ft | 393 kts | 334° |
| 2026-05-07 17:57 | 45.68494 | 12.07809 | 16667 ft | 397 kts | 334° |
| 2026-05-07 17:57 | 45.71024 | 12.06178 | 17228 ft | 400 kts | 334° |
| 2026-05-07 17:58 | 45.73572 | 12.04539 | 17788 ft | 403 kts | 334° |
| 2026-05-07 17:58 | 45.76145 | 12.02886 | 18346 ft | 405 kts | 334° |
| 2026-05-07 17:58 | 45.78729 | 12.01225 | 18816 ft | 408 kts | 334° |
| 2026-05-07 17:58 | 45.81325 | 11.99558 | 19272 ft | 410 kts | 334° |
| 2026-05-07 17:59 | 45.83932 | 11.97879 | 19752 ft | 411 kts | 334° |
| 2026-05-07 17:59 | 45.86533 | 11.96203 | 20470 ft | 407 kts | 334° |
| 2026-05-07 17:59 | 45.89118 | 11.94537 | 20985 ft | 408 kts | 334° |
| 2026-05-07 17:59 | 45.91717 | 11.92858 | 21464 ft | 411 kts | 334° |
| 2026-05-07 18:00 | 45.94300 | 11.91186 | 21929 ft | 413 kts | 333° |
| 2026-05-07 18:00 | 45.96927 | 11.89480 | 22356 ft | 416 kts | 334° |
| 2026-05-07 18:00 | 45.99574 | 11.87760 | 22766 ft | 419 kts | 334° |
| 2026-05-07 18:00 | 46.02244 | 11.86024 | 23185 ft | 422 kts | 334° |
| 2026-05-07 18:01 | 46.04923 | 11.84280 | 23559 ft | 424 kts | 334° |
| 2026-05-07 18:01 | 46.07622 | 11.82522 | 23872 ft | 427 kts | 333° |
| 2026-05-07 18:01 | 46.10331 | 11.80754 | 24226 ft | 428 kts | 333° |
| 2026-05-07 18:01 | 46.13050 | 11.78977 | 24570 ft | 429 kts | 333° |
| 2026-05-07 18:02 | 46.18512 | 11.75410 | 25250 ft | 432 kts | 332° |
| 2026-05-07 18:02 | 46.21248 | 11.73620 | 25573 ft | 433 kts | 332° |
| 2026-05-07 18:02 | 46.24002 | 11.71814 | 25894 ft | 435 kts | 332° |
| 2026-05-07 18:03 | 46.26758 | 11.70006 | 26220 ft | 436 kts | 332° |
| 2026-05-07 18:03 | 46.29522 | 11.68190 | 26501 ft | 437 kts | 331° |
| 2026-05-07 18:03 | 46.32293 | 11.66368 | 26778 ft | 438 kts | 331° |
| 2026-05-07 18:03 | 46.35034 | 11.64566 | 27059 ft | 440 kts | 331° |
| 2026-05-07 18:04 | 46.37825 | 11.62731 | 27348 ft | 440 kts | 331° |
| 2026-05-07 18:04 | 46.40617 | 11.60896 | 27608 ft | 441 kts | 331° |
| 2026-05-07 18:04 | 46.43417 | 11.59052 | 27820 ft | 442 kts | 331° |
| 2026-05-07 18:04 | 46.46217 | 11.57202 | 28054 ft | 444 kts | 330° |
| 2026-05-07 18:05 | 46.49036 | 11.55336 | 28277 ft | 445 kts | 330° |
| 2026-05-07 18:05 | 46.51856 | 11.53467 | 28472 ft | 446 kts | 330° |
| 2026-05-07 18:05 | 46.54684 | 11.51594 | 28674 ft | 447 kts | 330° |
| 2026-05-07 18:05 | 46.57512 | 11.49703 | 28879 ft | 445 kts | 329° |
| 2026-05-07 18:06 | 46.60260 | 11.47739 | 29308 ft | 439 kts | 328° |
| 2026-05-07 18:06 | 46.62971 | 11.45671 | 29491 ft | 440 kts | 327° |
| 2026-05-07 18:06 | 46.65645 | 11.43546 | 29781 ft | 438 kts | 326° |
| 2026-05-07 18:06 | 46.68320 | 11.41396 | 29968 ft | 439 kts | 326° |
| 2026-05-07 18:07 | 46.70992 | 11.39267 | 29992 ft | 438 kts | 327° |
| 2026-05-07 18:07 | 46.76274 | 11.34998 | 29992 ft | 433 kts | 320° |
| 2026-05-07 18:07 | 46.78484 | 11.32087 | 30004 ft | 426 kts | 308° |
| 2026-05-07 18:08 | 46.80452 | 11.28779 | 30031 ft | 426 kts | 307° |
| 2026-05-07 18:08 | 46.84318 | 11.22216 | 30045 ft | 427 kts | 307° |
| 2026-05-07 18:09 | 46.88196 | 11.15576 | 30042 ft | 430 kts | 307° |
| 2026-05-07 18:09 | 46.92086 | 11.08918 | 30036 ft | 430 kts | 307° |
| 2026-05-07 18:10 | 46.95948 | 11.02315 | 30031 ft | 430 kts | 307° |
| 2026-05-07 18:10 | 46.99854 | 10.95602 | 30038 ft | 429 kts | 307° |
| 2026-05-07 18:11 | 47.03723 | 10.88950 | 30036 ft | 428 kts | 307° |
| 2026-05-07 18:11 | 47.07579 | 10.82290 | 30027 ft | 427 kts | 307° |
| 2026-05-07 18:12 | 47.11426 | 10.75621 | 30022 ft | 430 kts | 308° |
| 2026-05-07 18:12 | 47.15301 | 10.68906 | 30025 ft | 431 kts | 308° |
| 2026-05-07 18:13 | 47.19175 | 10.62170 | 30028 ft | 432 kts | 308° |
| 2026-05-07 18:13 | 47.23051 | 10.55420 | 30031 ft | 432 kts | 308° |
| 2026-05-07 18:14 | 47.26898 | 10.48705 | 29999 ft | 433 kts | 308° |
| 2026-05-07 18:14 | 47.28846 | 10.45293 | 29696 ft | 424 kts | 308° |
| 2026-05-07 18:14 | 47.30714 | 10.42022 | 29377 ft | 411 kts | 308° |
| 2026-05-07 18:14 | 47.32509 | 10.38875 | 29012 ft | 401 kts | 307° |
| 2026-05-07 18:15 | 47.34278 | 10.35768 | 28658 ft | 391 kts | 308° |
| 2026-05-07 18:15 | 47.36006 | 10.32729 | 28290 ft | 382 kts | 308° |
| 2026-05-07 18:15 | 47.37698 | 10.29750 | 27941 ft | 375 kts | 308° |
| 2026-05-07 18:15 | 47.39362 | 10.26821 | 27589 ft | 368 kts | 308° |
| 2026-05-07 18:16 | 47.40987 | 10.23953 | 27242 ft | 362 kts | 308° |
| 2026-05-07 18:16 | 47.42591 | 10.21113 | 26898 ft | 358 kts | 308° |
| 2026-05-07 18:16 | 47.44177 | 10.18300 | 26519 ft | 355 kts | 308° |
| 2026-05-07 18:16 | 47.45753 | 10.15506 | 26082 ft | 352 kts | 308° |
| 2026-05-07 18:17 | 47.47316 | 10.12734 | 25638 ft | 350 kts | 308° |
| 2026-05-07 18:17 | 47.48872 | 10.09974 | 25187 ft | 348 kts | 308° |
| 2026-05-07 18:17 | 47.50419 | 10.07227 | 24730 ft | 347 kts | 308° |
| 2026-05-07 18:17 | 47.51956 | 10.04490 | 24277 ft | 346 kts | 308° |
| 2026-05-07 18:18 | 47.53490 | 10.01755 | 23822 ft | 344 kts | 308° |
| 2026-05-07 18:18 | 47.55020 | 9.99029 | 23332 ft | 343 kts | 308° |
| 2026-05-07 18:18 | 47.56540 | 9.96322 | 22845 ft | 341 kts | 308° |
| 2026-05-07 18:18 | 47.58056 | 9.93618 | 22377 ft | 339 kts | 308° |
| 2026-05-07 18:19 | 47.59556 | 9.90936 | 21935 ft | 337 kts | 307° |
| 2026-05-07 18:19 | 47.60768 | 9.88012 | 21509 ft | 332 kts | 288° |
| 2026-05-07 18:19 | 47.61132 | 9.84689 | 21078 ft | 327 kts | 266° |
| 2026-05-07 18:19 | 47.60695 | 9.81391 | 20757 ft | 327 kts | 255° |
| 2026-05-07 18:20 | 47.60071 | 9.78151 | 20331 ft | 326 kts | 254° |
| 2026-05-07 18:20 | 47.59433 | 9.74932 | 19914 ft | 325 kts | 254° |
| 2026-05-07 18:20 | 47.58796 | 9.71735 | 19522 ft | 323 kts | 254° |
| 2026-05-07 18:20 | 47.58162 | 9.68553 | 19136 ft | 321 kts | 254° |
| 2026-05-07 18:21 | 47.57532 | 9.65397 | 18560 ft | 320 kts | 253° |
| 2026-05-07 18:21 | 47.56913 | 9.62257 | 17977 ft | 324 kts | 254° |
| 2026-05-07 18:21 | 47.56283 | 9.59035 | 17425 ft | 326 kts | 254° |
| 2026-05-07 18:21 | 47.55654 | 9.55814 | 16987 ft | 325 kts | 254° |
| 2026-05-07 18:22 | 47.55028 | 9.52605 | 16588 ft | 323 kts | 254° |
| 2026-05-07 18:22 | 47.54610 | 9.50459 | 16324 ft | 321 kts | 254° |
| 2026-05-07 18:22 | 47.53798 | 9.46275 | 15823 ft | 318 kts | 255° |
| 2026-05-07 18:22 | 47.53523 | 9.43058 | 15457 ft | 315 kts | 271° |
| 2026-05-07 18:23 | 47.53669 | 9.39826 | 15069 ft | 314 kts | 274° |
| 2026-05-07 18:23 | 47.53859 | 9.36619 | 14694 ft | 312 kts | 274° |
| 2026-05-07 18:23 | 47.54054 | 9.33442 | 14319 ft | 308 kts | 274° |
| 2026-05-07 18:23 | 47.54244 | 9.30307 | 13634 ft | 304 kts | 271° |
| 2026-05-07 18:24 | 47.53955 | 9.27263 | 12977 ft | 301 kts | 248° |
| 2026-05-07 18:24 | 47.52887 | 9.24618 | 12546 ft | 300 kts | 235° |
| 2026-05-07 18:24 | 47.51646 | 9.22145 | 12128 ft | 298 kts | 234° |
| 2026-05-07 18:24 | 47.50415 | 9.19726 | 11476 ft | 293 kts | 234° |
| 2026-05-07 18:25 | 47.49207 | 9.17344 | 10968 ft | 285 kts | 234° |
| 2026-05-07 18:25 | 47.48020 | 9.15009 | 10626 ft | 282 kts | 234° |
| 2026-05-07 18:25 | 47.46853 | 9.12711 | 10346 ft | 277 kts | 234° |
| 2026-05-07 18:25 | 47.45699 | 9.10445 | 10046 ft | 274 kts | 234° |
| 2026-05-07 18:26 | 47.44559 | 9.08204 | 9685 ft | 272 kts | 234° |
| 2026-05-07 18:26 | 47.43427 | 9.05968 | 9246 ft | 272 kts | 234° |
| 2026-05-07 18:26 | 47.42300 | 9.03722 | 8915 ft | 273 kts | 234° |
| 2026-05-07 18:26 | 47.41171 | 9.01472 | 8648 ft | 274 kts | 234° |
| 2026-05-07 18:27 | 47.40037 | 8.99210 | 8389 ft | 273 kts | 234° |
| 2026-05-07 18:27 | 47.38978 | 8.96880 | 8135 ft | 273 kts | 241° |
| 2026-05-07 18:27 | 47.38111 | 8.94396 | 7877 ft | 273 kts | 244° |
| 2026-05-07 18:27 | 47.37555 | 8.92739 | 7715 ft | 273 kts | 244° |
| 2026-05-07 18:28 | 47.36447 | 8.89419 | 7376 ft | 270 kts | 244° |
| 2026-05-07 18:28 | 47.35615 | 8.86932 | 7122 ft | 263 kts | 244° |
| 2026-05-07 18:28 | 47.34812 | 8.84586 | 6877 ft | 257 kts | 239° |
| 2026-05-07 18:28 | 47.33831 | 8.82429 | 6631 ft | 250 kts | 234° |
| 2026-05-07 18:29 | 47.32815 | 8.80378 | 6383 ft | 244 kts | 234° |
| 2026-05-07 18:29 | 47.31818 | 8.78383 | 6091 ft | 240 kts | 234° |
| 2026-05-07 18:29 | 47.30831 | 8.76412 | 5784 ft | 238 kts | 234° |
| 2026-05-07 18:29 | 47.29851 | 8.74460 | 5470 ft | 236 kts | 234° |
| 2026-05-07 18:30 | 47.28897 | 8.72523 | 5232 ft | 232 kts | 239° |
| 2026-05-07 18:30 | 47.28498 | 8.71086 | 5075 ft | 227 kts | 259° |
| 2026-05-07 18:30 | 47.28511 | 8.68837 | 4999 ft | 214 kts | 285° |
| 2026-05-07 18:30 | 47.29122 | 8.66936 | 5031 ft | 194 kts | 308° |
| 2026-05-07 18:31 | 47.30077 | 8.65635 | 4886 ft | 183 kts | 329° |
| 2026-05-07 18:31 | 47.31188 | 8.64833 | 4660 ft | 178 kts | 336° |
| 2026-05-07 18:31 | 47.32301 | 8.64074 | 4408 ft | 175 kts | 335° |
| 2026-05-07 18:31 | 47.33399 | 8.63327 | 4153 ft | 172 kts | 335° |
| 2026-05-07 18:32 | 47.34481 | 8.62585 | 3903 ft | 171 kts | 335° |
| 2026-05-07 18:32 | 47.35554 | 8.61852 | 3636 ft | 169 kts | 335° |
| 2026-05-07 18:32 | 47.36598 | 8.61134 | 3429 ft | 157 kts | 335° |
| 2026-05-07 18:32 | 47.37546 | 8.60484 | 3173 ft | 147 kts | 335° |
| 2026-05-07 18:33 | 47.38448 | 8.59865 | 2931 ft | 142 kts | 335° |
| 2026-05-07 18:33 | 47.39342 | 8.59244 | 2726 ft | 141 kts | 335° |
| 2026-05-07 18:33 | 47.40225 | 8.58644 | 2515 ft | 140 kts | 335° |
| 2026-05-07 18:33 | 47.41108 | 8.58037 | 2329 ft | 140 kts | 334° |
| 2026-05-07 18:34 | 47.41999 | 8.57424 | 2123 ft | 142 kts | 335° |
| 2026-05-07 18:34 | 47.42892 | 8.56805 | 1891 ft | 142 kts | 335° |
| 2026-05-07 18:34 | 47.43785 | 8.56192 | 1700 ft | 141 kts | 335° |
| 2026-05-07 18:34 | 47.44674 | 8.55584 | 1482 ft | 141 kts | 335° |
| 2026-05-07 18:35 | 47.45525 | 8.55002 | 1399 ft | 121 kts | 335° |
| 2026-05-07 18:35 | 47.46175 | 8.54555 | 1385 ft | 91 kts | 335° |
| 2026-05-07 18:35 | 47.46683 | 8.54205 | 1378 ft | 61 kts | 335° |
| 2026-05-07 18:35 | 47.46914 | 8.54047 | 1383 ft | 20 kts | 335° |
| 2026-05-07 18:36 | 47.47009 | 8.54058 | 1383 ft | 14 kts | 51° |
| 2026-05-07 18:36 | 47.47015 | 8.54198 | 1384 ft | 14 kts | 112° |
| 2026-05-07 18:36 | 47.46959 | 8.54285 | 1384 ft | 10 kts | 141° |
| 2026-05-07 18:36 | 47.46905 | 8.54345 | 1382 ft | 9 kts | 151° |
| 2026-05-07 18:37 | 47.46850 | 8.54391 | 1383 ft | 8 kts | 142° |
| 2026-05-07 18:37 | 47.46814 | 8.54457 | 1383 ft | 10 kts | 124° |
| 2026-05-07 18:37 | 47.46758 | 8.54568 | 1383 ft | 15 kts | 139° |
| 2026-05-07 18:37 | 47.46684 | 8.54629 | 1389 ft | 10 kts | 156° |
| 2026-05-07 18:38 | 47.46623 | 8.54670 | 1399 ft | 12 kts | 155° |
| 2026-05-07 18:38 | 47.46537 | 8.54729 | 1387 ft | 14 kts | 155° |
| 2026-05-07 18:38 | 47.46449 | 8.54790 | 1385 ft | 14 kts | 154° |
| 2026-05-07 18:38 | 47.46363 | 8.54851 | 1382 ft | 13 kts | 154° |
| 2026-05-07 18:39 | 47.46278 | 8.54910 | 1385 ft | 16 kts | 154° |
| 2026-05-07 18:39 | 47.46163 | 8.54989 | 1388 ft | 18 kts | 155° |
| 2026-05-07 18:39 | 47.46054 | 8.55063 | 1397 ft | 16 kts | 155° |
| 2026-05-07 18:39 | 47.45963 | 8.55125 | 1398 ft | 14 kts | 155° |
| 2026-05-07 18:40 | 47.45872 | 8.55187 | 1404 ft | 15 kts | 155° |
| 2026-05-07 18:40 | 47.45760 | 8.55263 | 1400 ft | 19 kts | 157° |
| 2026-05-07 18:40 | 47.45643 | 8.55329 | 1399 ft | 17 kts | 161° |
| 2026-05-07 18:40 | 47.45546 | 8.55392 | 1408 ft | 13 kts | 141° |
| 2026-05-07 18:41 | 47.45527 | 8.55498 | 1407 ft | 9 kts | 96° |
| 2026-05-07 18:41 | 47.45519 | 8.55601 | 1407 ft | 10 kts | 96° |
| 2026-05-07 18:41 | 47.45473 | 8.55642 | 1411 ft | 6 kts | 187° |
| 2026-05-07 18:41 | 47.45440 | 8.55636 | 1407 ft | 4 kts | 186° |
| 2026-05-07 18:42 | 47.45430 | 8.55634 | 1408 ft | 0 kts | 186° |